ADDS METAR Data INFO
IDs: Format: Raw Decoded Include TAF

Data at: 2253 UTC 22 Jun 2018

KMMI 222235Z AUTO 19003KT 8SM SCT006 SCT032 BKN060 21/21 A2986 RMK A01
KMMI 222215Z AUTO 00000KT 5SM BR FEW006 SCT025 BKN036 21/21 A2986 RMK A01
KMMI 222155Z AUTO VRB03KT 2 1/2SM BR FEW004 SCT031 BKN038 22/21 A2988 RMK A01 P0014
KMMI 222135Z AUTO 00000KT 4SM BR SCT037 BKN047 BKN060 22/21 A2985 RMK A01
KMMI 222115Z AUTO 00000KT 10SM FEW004 FEW036 BKN060 22/21 A2984 RMK A01
KMMI 222055Z AUTO 23009G18KT 1SM BR BKN004 BKN032 OVC042 23/21 A2984 RMK A01 P0024
KMMI 222035Z AUTO 00000KT 9SM FEW041 SCT048 SCT055 26/22 A2981 RMK A01
KMMI 222015Z AUTO 00000KT 10SM FEW049 SCT055 26/22 A2981 RMK A01
KMMI 221955Z AUTO VRB04G11KT 8SM SCT120 27/20 A2982 RMK A01
KMMI 221935Z AUTO VRB04G13KT 10SM SCT110 28/19 A2983 RMK A01
KMMI 221915Z AUTO 22007G13KT 190V250 10SM CLR 30/20 A2982 RMK A01
KMMI 221855Z AUTO 22008G14KT 10SM CLR 29/20 A2982 RMK A01
KMMI 221835Z AUTO 20008KT 180V240 10SM FEW055 29/19 A2983 RMK A01
KMMI 221815Z AUTO VRB05G12KT 10SM CLR 29/19 A2984 RMK A01
KMMI 221755Z AUTO 26009G16KT 10SM CLR 29/19 A2985 RMK A01
KMMI 221735Z AUTO 24008G16KT 220V280 10SM CLR 28/19 A2986 RMK A01
KMMI 221715Z AUTO 19007G12KT 10SM CLR 28/20 A2987 RMK A01
KMMI 221655Z AUTO VRB03G11KT 10SM CLR 27/19 A2987 RMK A01
KMMI 221635Z AUTO 24006KT 10SM FEW029 27/20 A2987 RMK A01
KMMI 221615Z AUTO VRB04KT 10SM FEW028 27/20 A2987 RMK A01
KMMI 221555Z AUTO 23007KT 10SM FEW026 26/19 A2988 RMK A01
KMMI 221535Z AUTO 22003G10KT 10SM BKN023 BKN028 26/20 A2988 RMK A01
KMMI 221515Z AUTO VRB05KT 10SM BKN022 25/20 A2987 RMK A01
KMMI 221455Z AUTO 24004KT 10SM SCT021 SCT026 25/19 A2987 RMK A01
KMMI 221435Z AUTO 22004G11KT 10SM SCT020 BKN025 24/19 A2987 RMK A01
KMMI 221415Z AUTO 25005G11KT 10SM BKN021 BKN027 24/19 A2987 RMK A01
KMMI 221355Z AUTO 23008G13KT 10SM SCT019 BKN024 23/19 A2988 RMK A01
KMMI 221335Z AUTO 24006G12KT 10SM FEW015 BKN022 24/20 A2988 RMK A01
KMMI 221315Z AUTO 23006KT 10SM FEW015 BKN022 OVC055 23/20 A2988 RMK A01
KMMI 221255Z AUTO VRB05KT 10SM BKN017 OVC023 22/20 A2988 RMK A01
KMMI 221235Z AUTO 23005KT 10SM FEW014 SCT019 OVC025 22/20 A2988 RMK A01
KMMI 221215Z AUTO VRB05G10KT 10SM FEW022 BKN027 BKN032 22/20 A2987 RMK A01
KMMI 221155Z AUTO VRB04KT 10SM CLR 21/20 A2987 RMK A01
KMMI 221135Z AUTO 00000KT 10SM CLR 21/20 A2986 RMK A01
KMMI 221115Z AUTO 00000KT 10SM CLR 21/20 A2986 RMK A01
KMMI 221055Z AUTO 00000KT 10SM CLR 21/20 A2985 RMK A01
KMMI 221035Z AUTO VRB03KT 10SM FEW012 SCT018 SCT022 22/20 A2984 RMK A01
KMMI 221015Z AUTO VRB04KT 10SM SCT012 BKN019 BKN120 22/20 A2984 RMK A01
KMMI 220955Z AUTO 27005KT 10SM FEW120 22/20 A2983 RMK A01
KMMI 220935Z AUTO 00000KT 10SM FEW016 FEW022 22/20 A2981 RMK A01
KMMI 220915Z AUTO VRB04KT 10SM SCT016 SCT022 22/21 A2982 RMK A01
KMMI 220855Z AUTO 23004KT 10SM SCT016 22/21 A2982 RMK A01
KMMI 220835Z AUTO 00000KT 10SM SCT014 SCT019 BKN120 23/22 A2981 RMK A01
KMMI 220815Z AUTO 26006KT 10SM SCT016 BKN120 23/22 A2981 RMK A01
KMMI 220755Z AUTO 00000KT 10SM BKN016 BKN020 BKN120 23/22 A2980 RMK A01
KMMI 220735Z AUTO 26005KT 10SM BKN016 BKN020 23/22 A2980 RMK A01
KMMI 220715Z AUTO 26004KT 10SM FEW065 SCT075 SCT090 23/22 A2979 RMK A01
KMMI 220655Z AUTO 24003KT 10SM FEW060 SCT075 BKN085 23/22 A2979 RMK A01
KMMI 220635Z AUTO VRB03KT 10SM FEW070 BKN090 BKN110 23/21 A2980 RMK A01
KMMI 220615Z AUTO 00000KT 10SM CLR 23/21 A2982 RMK A01
KMMI 220555Z AUTO VRB03KT 10SM CLR 22/21 A2983 RMK A01
KMMI 220535Z AUTO 00000KT 10SM FEW025 22/21 A2983 RMK A01
KMMI 220515Z AUTO 22003KT 10SM FEW025 22/21 A2985 RMK A01
KMMI 220455Z AUTO 00000KT 10SM CLR 22/21 A2985 RMK A01
KMMI 220435Z AUTO 25004KT 10SM CLR 22/21 A2986 RMK A01
KMMI 220415Z AUTO VRB03KT 10SM CLR 22/22 A2985 RMK A01
KMMI 220355Z AUTO 00000KT 10SM CLR 22/22 A2985 RMK A01
KMMI 220335Z AUTO 00000KT 10SM CLR 23/22 A2985 RMK A01
KMMI 220315Z AUTO 00000KT 10SM CLR 23/22 A2985 RMK A01
KMMI 220255Z AUTO 00000KT 10SM CLR 23/22 A2985 RMK A01
KMMI 220235Z AUTO 00000KT 10SM CLR 23/22 A2985 RMK A01
KMMI 220215Z AUTO 00000KT 10SM FEW044 23/22 A2985 RMK A01
KMMI 220155Z AUTO 00000KT 10SM FEW055 FEW070 23/22 A2984 RMK A01
KMMI 220135Z AUTO 00000KT 10SM FEW050 23/22 A2985 RMK A01
KMMI 220115Z AUTO 00000KT 10SM FEW040 SCT050 23/23 A2984 RMK A01
KMMI 220055Z AUTO 00000KT 10SM FEW041 FEW050 23/23 A2983 RMK A01
KMMI 220035Z AUTO 00000KT 10SM FEW040 FEW070 24/23 A2983 RMK A01
KMMI 220015Z AUTO 00000KT 10SM FEW030 SCT035 BKN070 24/23 A2983 RMK A01
KMMI 212355Z AUTO 00000KT 10SM FEW036 SCT060 SCT070 24/23 A2982 RMK A01
KMMI 212335Z AUTO 00000KT 10SM CLR 24/23 A2982 RMK A01
KMMI 212315Z AUTO 27004KT 10SM CLR 24/23 A2982 RMK A01
KMMI 212255Z AUTO 00000G10KT 3SM BR FEW004 FEW009 SCT027 23/22 A2982 RMK A01 P0058
KMMI 212235Z AUTO 26009KT 230V290 3/4SM BR BKN005 BKN018 OVC031 24/23 A2984 RMK A01
KMMI 212215Z AUTO 00000KT 8SM FEW010 SCT032 BKN050 25/23 A2982 RMK A01
KMMI 212155Z AUTO 00000KT 10SM SCT010 SCT032 BKN085 25/23 A2982 RMK A01
KMMI 212135Z AUTO 00000KT 10SM FEW009 SCT046 BKN085 25/23 A2983 RMK A01
KMMI 212115Z AUTO 00000KT 10SM SCT008 SCT031 BKN045 24/23 A2983 RMK A01
KMMI 212055Z AUTO 00000KT 10SM FEW008 SCT050 BKN090 24/23 A2984 RMK A01 P0001
KMMI 212035Z AUTO 00000KT 9SM FEW028 SCT065 BKN090 23/22 A2984 RMK A01
KMMI 212015Z AUTO 00000KT 10SM SCT060 SCT075 23/22 A2984 RMK A01
KMMI 211955Z AUTO 00000KT 2 1/2SM BR FEW004 SCT026 BKN032 22/21 A2985 RMK A01 P0038
KMMI 211935Z AUTO 35006KT 3/4SM BR BKN004 BKN009 OVC013 22/21 A2987 RMK A01
KMMI 211915Z AUTO VRB03KT 5SM BR SCT011 BKN018 OVC037 23/22 A2986 RMK A01
KMMI 211855Z AUTO 00000KT 10SM SCT018 BKN026 OVC065 24/23 A2986 RMK A01
KMMI 211835Z AUTO 00000KT 10SM BKN016 BKN021 OVC025 23/22 A2987 RMK A01
KMMI 211815Z AUTO 07003KT 10SM FEW016 BKN021 BKN026 24/22 A2988 RMK A01
KMMI 211755Z AUTO 00000KT 10SM SCT023 SCT039 BKN046 24/22 A2989 RMK A01 P0008
KMMI 211735Z AUTO 00000KT 10SM SCT015 SCT024 BKN042 23/22 A2990 RMK A01
KMMI 211715Z AUTO 03003KT 6SM BR FEW004 BKN011 BKN017 22/21 A2991 RMK A01
KMMI 211655Z AUTO 33006KT 3SM BR FEW008 BKN014 OVC020 23/21 A2992 RMK A01 P0005
KMMI 211635Z AUTO 00000KT 9SM SCT020 BKN036 OVC070 25/23 A2992 RMK A01
KMMI 211615Z AUTO 24004KT 10SM FEW014 SCT039 BKN065 25/22 A2992 RMK A01
KMMI 211555Z AUTO VRB05KT 10SM FEW038 FEW050 BKN060 25/22 A2993 RMK A01
KMMI 211535Z AUTO 00000KT 10SM FEW011 SCT050 OVC060 25/22 A2993 RMK A01
KMMI 211515Z AUTO 00000KT 10SM FEW046 OVC055 24/22 A2993 RMK A01
KMMI 211455Z AUTO 00000KT 10SM FEW009 SCT050 OVC060 24/23 A2993 RMK A01
KMMI 211435Z AUTO 00000KT 10SM FEW008 FEW055 BKN065 24/23 A2993 RMK A01
KMMI 211355Z AUTO 00000KT 9SM SCT006 SCT049 BKN070 24/22 A2994 RMK A01
KMMI 211335Z AUTO VRB03KT 6SM BR BKN004 BKN055 BKN065 23/23 A2994 RMK A01
KMMI 211315Z AUTO 00000KT 6SM BR SCT005 SCT065 SCT075 23/22 A2995 RMK A01
KMMI 211255Z AUTO 00000KT 7SM CLR 23/22 A2994 RMK A01 P0007
KMMI 211235Z AUTO 00000KT 3SM BR FEW032 SCT044 BKN055 23/22 A2994 RMK A01
KMMI 211215Z AUTO 00000KT 3SM BR SCT035 BKN044 OVC050 23/22 A2995 RMK A01
KMMI 211155Z AUTO 00000KT 6SM BR SCT047 BKN055 OVC070 23/22 A2994 RMK A01
KMMI 211135Z AUTO 00000KT 10SM SCT055 BKN070 OVC080 23/22 A2993 RMK A01
KMMI 211115Z AUTO 00000KT 10SM FEW055 SCT070 OVC080 22/22 A2992 RMK A01
KMMI 211055Z AUTO 00000KT 10SM SCT055 SCT070 BKN100 23/22 A2992 RMK A01